Time;durP1;ratioP1;P1;durP2;ratioP2;P2;SDS_P1;SDS_P2;PMS_P1;PMS_P2;Temp;Humidity;BMP_temperature;BMP_pressure;BME280_temperature;BME280_humidity;BME280_pressure;Samples;Min_cycle;Max_cycle;Signal;HPM_P1;HPM_P2
2024/01/13 00:00:19;;;;;;;73.63;38.17;;;;;;;;;;4389351;32;318524;-79
2024/01/13 00:02:46;;;;;;;73.67;35.97;;;;;;;;;;4386865;32;318658;-77
2024/01/13 00:05:12;;;;;;;71.77;34.77;;;;;;;;;;4381164;32;419735;-78
2024/01/13 00:07:39;;;;;;;61.73;33.70;;;;;;;;;;4401115;32;319532;-78
2024/01/13 00:10:09;;;;;;;53.77;32.40;;;;;;;;;;4389191;32;318595;-78
2024/01/13 00:12:36;;;;;;;56.20;30.73;;;;;;;;;;4396992;32;319375;-78
2024/01/13 00:15:03;;;;;;;58.17;31.63;;;;;;;;;;4372810;32;319383;-78
2024/01/13 00:17:31;;;;;;;52.67;28.47;;;;;;;;;;4384360;32;318619;-78
2024/01/13 00:19:58;;;;;;;51.47;27.20;;;;;;;;;;4385177;32;319794;-78
2024/01/13 00:22:25;;;;;;;51.77;27.37;;;;;;;;;;4368612;32;318925;-78
2024/01/13 00:24:52;;;;;;;49.90;29.03;;;;;;;;;;4361089;32;319210;-78
2024/01/13 00:27:21;;;;;;;57.93;32.10;;;;;;;;;;4396186;32;342249;-78
2024/01/13 00:29:48;;;;;;;55.83;28.53;;;;;;;;;;4394162;32;380033;-78
2024/01/13 00:32:15;;;;;;;52.70;28.67;;;;;;;;;;4399761;32;319694;-79
2024/01/13 00:34:43;;;;;;;49.97;26.23;;;;;;;;;;4389871;32;318420;-79
2024/01/13 00:37:10;;;;;;;43.07;24.27;;;;;;;;;;4372256;32;319131;-78
2024/01/13 00:39:37;;;;;;;38.77;22.53;;;;;;;;;;4385792;32;319125;-79
2024/01/13 00:42:04;;;;;;;40.17;23.73;;;;;;;;;;4359475;32;319674;-78
2024/01/13 00:44:32;;;;;;;36.90;22.33;;;;;;;;;;4392327;32;332057;-78
2024/01/13 00:46:59;;;;;;;45.87;23.90;;;;;;;;;;4392828;32;319199;-78
2024/01/13 00:49:27;;;;;;;50.70;26.57;;;;;;;;;;4401375;32;319675;-78
2024/01/13 00:51:54;;;;;;;43.60;26.93;;;;;;;;;;4385386;32;318690;-78
2024/01/13 00:54:23;;;;;;;60.17;29.93;;;;;;;;;;4397970;32;348055;-78
2024/01/13 00:56:51;;;;;;;50.23;28.17;;;;;;;;;;4389342;32;319229;-78
2024/01/13 00:59:18;;;;;;;46.50;27.83;;;;;;;;;;4378090;32;318431;-79
2024/01/13 01:01:49;;;;;;;52.33;28.80;;;;;;;;;;4385863;32;318694;-79
2024/01/13 01:04:16;;;;;;;50.10;27.97;;;;;;;;;;4375848;32;418804;-79
2024/01/13 01:06:43;;;;;;;54.77;33.20;;;;;;;;;;4388187;32;318977;-79
2024/01/13 01:09:12;;;;;;;59.33;29.20;;;;;;;;;;4359737;32;319333;-79
2024/01/13 01:11:39;;;;;;;63.60;34.13;;;;;;;;;;4395453;32;318486;-79
2024/01/13 01:14:05;;;;;;;77.43;39.13;;;;;;;;;;4390639;32;319136;-78
2024/01/13 01:16:33;;;;;;;96.83;46.47;;;;;;;;;;4397963;32;319511;-78
2024/01/13 01:19:01;;;;;;;93.73;46.27;;;;;;;;;;4376546;32;319244;-77
2024/01/13 01:21:28;;;;;;;83.20;39.87;;;;;;;;;;4383671;32;318849;-78
2024/01/13 01:23:56;;;;;;;80.43;37.80;;;;;;;;;;4387325;32;351326;-78
2024/01/13 01:26:25;;;;;;;78.07;38.23;;;;;;;;;;4385260;32;319024;-78
2024/01/13 01:28:53;;;;;;;77.43;40.03;;;;;;;;;;4368697;32;359558;-78
2024/01/13 01:31:20;;;;;;;86.17;42.00;;;;;;;;;;4384429;32;324902;-79
2024/01/13 01:33:47;;;;;;;92.17;40.07;;;;;;;;;;4372211;32;342142;-80
2024/01/13 01:36:15;;;;;;;71.50;34.33;;;;;;;;;;4391642;32;318512;-79
2024/01/13 01:38:42;;;;;;;68.60;32.83;;;;;;;;;;4384910;32;356648;-78
2024/01/13 01:41:09;;;;;;;57.60;32.97;;;;;;;;;;4362469;32;319037;-78
2024/01/13 01:43:36;;;;;;;60.00;31.13;;;;;;;;;;4389483;32;338077;-79
2024/01/13 01:46:07;;;;;;;59.63;33.40;;;;;;;;;;4382795;32;319431;-79
2024/01/13 01:48:36;;;;;;;58.23;31.40;;;;;;;;;;4408633;32;318513;-79
2024/01/13 01:51:04;;;;;;;58.60;28.97;;;;;;;;;;4373742;32;318761;-78
2024/01/13 01:53:34;;;;;;;52.07;28.20;;;;;;;;;;4403621;32;354855;-79
2024/01/13 01:56:04;;;;;;;51.40;27.10;;;;;;;;;;4361779;32;318605;-78
2024/01/13 01:58:32;;;;;;;46.43;26.80;;;;;;;;;;4382709;32;318806;-78
2024/01/13 02:01:03;;;;;;;51.93;25.73;;;;;;;;;;4367256;32;319123;-78
2024/01/13 02:03:31;;;;;;;46.90;24.73;;;;;;;;;;4379844;32;327652;-78
2024/01/13 02:06:02;;;;;;;43.57;23.30;;;;;;;;;;4373930;32;318670;-78
2024/01/13 02:08:29;;;;;;;56.37;27.43;;;;;;;;;;4393384;32;318930;-78
2024/01/13 02:10:58;;;;;;;41.20;24.63;;;;;;;;;;4375039;32;319446;-80
2024/01/13 02:13:25;;;;;;;53.23;24.23;;;;;;;;;;4393679;32;318427;-78
2024/01/13 02:15:52;;;;;;;46.43;25.27;;;;;;;;;;4374377;32;318658;-78
2024/01/13 02:18:23;;;;;;;47.77;24.03;;;;;;;;;;4391513;32;318631;-78
2024/01/13 02:20:53;;;;;;;49.37;26.13;;;;;;;;;;4379576;32;326087;-78
2024/01/13 02:23:22;;;;;;;45.13;25.60;;;;;;;;;;4384714;32;318589;-78
2024/01/13 02:25:49;;;;;;;52.20;25.30;;;;;;;;;;4394568;32;319407;-78
2024/01/13 02:28:17;;;;;;;51.00;27.30;;;;;;;;;;4391223;32;318731;-78
2024/01/13 02:30:44;;;;;;;50.97;29.07;;;;;;;;;;4371906;32;318444;-78
2024/01/13 02:33:11;;;;;;;55.60;28.87;;;;;;;;;;4383252;32;421209;-78
2024/01/13 02:35:38;;;;;;;45.57;25.63;;;;;;;;;;4401483;32;318544;-78
2024/01/13 02:38:05;;;;;;;48.10;24.40;;;;;;;;;;4397067;32;318389;-78
2024/01/13 02:40:34;;;;;;;41.10;22.67;;;;;;;;;;4408087;32;319480;-78
2024/01/13 02:43:00;;;;;;;42.83;23.97;;;;;;;;;;4382844;32;319051;-78
2024/01/13 02:45:27;;;;;;;38.43;20.60;;;;;;;;;;4391147;32;318719;-79
2024/01/13 02:48:02;;;;;;;39.80;22.90;;;;;;;;;;4395419;32;319140;-80
2024/01/13 02:50:29;;;;;;;38.43;20.17;;;;;;;;;;4405446;32;317603;-79
2024/01/13 02:52:56;;;;;;;44.67;25.83;;;;;;;;;;4396913;32;318543;-79
2024/01/13 02:55:23;;;;;;;80.03;38.43;;;;;;;;;;4408543;32;319330;-79
2024/01/13 02:57:51;;;;;;;65.00;30.00;;;;;;;;;;4411746;32;318404;-79
2024/01/13 03:00:19;;;;;;;65.00;34.23;;;;;;;;;;4370739;32;419639;-80
2024/01/13 03:02:46;;;;;;;52.97;28.87;;;;;;;;;;4404472;32;318463;-79
2024/01/13 03:05:13;;;;;;;44.93;26.70;;;;;;;;;;4388887;32;330402;-79
2024/01/13 03:07:57;;;;;;;52.80;27.17;;;;;;;;;;4393292;32;318461;-79
2024/01/13 03:10:25;;;;;;;66.40;35.07;;;;;;;;;;4369570;32;418836;-78
2024/01/13 03:12:53;;;;;;;72.97;36.83;;;;;;;;;;4390676;32;318504;-78
2024/01/13 03:15:21;;;;;;;74.17;40.83;;;;;;;;;;4372357;32;420194;-78
2024/01/13 03:17:48;;;;;;;51.80;31.87;;;;;;;;;;4390535;32;318727;-79
2024/01/13 03:20:15;;;;;;;48.00;28.13;;;;;;;;;;4366253;32;340825;-79
2024/01/13 03:22:42;;;;;;;55.10;29.93;;;;;;;;;;4386897;32;318936;-78
2024/01/13 03:25:09;;;;;;;54.57;28.43;;;;;;;;;;4380407;32;318407;-78
2024/01/13 03:27:36;;;;;;;52.53;30.07;;;;;;;;;;4385914;32;318694;-78
2024/01/13 03:30:07;;;;;;;52.10;28.20;;;;;;;;;;4375161;32;319218;-78
2024/01/13 03:32:34;;;;;;;52.50;27.47;;;;;;;;;;4386975;32;319169;-78
2024/01/13 03:35:05;;;;;;;64.57;31.83;;;;;;;;;;4383178;32;319076;-78
2024/01/13 03:37:33;;;;;;;63.13;29.67;;;;;;;;;;4385862;32;318552;-78
2024/01/13 03:40:00;;;;;;;58.53;30.97;;;;;;;;;;4378022;32;341477;-79
2024/01/13 03:42:27;;;;;;;58.63;32.37;;;;;;;;;;4405125;32;317588;-78
2024/01/13 03:44:54;;;;;;;66.10;34.90;;;;;;;;;;4395607;32;319141;-78
2024/01/13 03:47:25;;;;;;;66.67;33.47;;;;;;;;;;4408023;32;348508;-79
2024/01/13 03:49:53;;;;;;;72.50;34.97;;;;;;;;;;4396624;32;402820;-78
2024/01/13 03:52:21;;;;;;;58.53;31.40;;;;;;;;;;4399716;32;348872;-79
2024/01/13 03:54:49;;;;;;;60.03;31.33;;;;;;;;;;4408431;32;319455;-78
2024/01/13 03:57:16;;;;;;;59.17;31.23;;;;;;;;;;4396471;32;319050;-79
2024/01/13 03:59:43;;;;;;;67.50;32.57;;;;;;;;;;4406267;32;319487;-78
2024/01/13 04:02:10;;;;;;;79.03;37.77;;;;;;;;;;4392165;32;319015;-79
2024/01/13 04:04:39;;;;;;;93.30;41.07;;;;;;;;;;4395960;32;319344;-78
2024/01/13 04:07:07;;;;;;;99.77;46.13;;;;;;;;;;4386323;32;319067;-78
2024/01/13 04:09:35;;;;;;;84.70;42.67;;;;;;;;;;4395685;32;319509;-78
2024/01/13 04:12:03;;;;;;;85.30;44.40;;;;;;;;;;4404700;32;319278;-79
2024/01/13 04:14:30;;;;;;;97.63;50.40;;;;;;;;;;4420206;32;317629;-79
2024/01/13 04:16:57;;;;;;;122.33;54.40;;;;;;;;;;4411139;32;317927;-78
2024/01/13 04:19:24;;;;;;;87.83;43.77;;;;;;;;;;4423419;32;318361;-79
2024/01/13 04:21:52;;;;;;;101.60;50.27;;;;;;;;;;4412685;32;319367;-79
2024/01/13 04:24:20;;;;;;;111.73;50.10;;;;;;;;;;4389293;32;419952;-79
2024/01/13 04:26:46;;;;;;;113.93;55.90;;;;;;;;;;4412986;32;319576;-79
2024/01/13 04:29:15;;;;;;;79.43;43.40;;;;;;;;;;4400081;32;320213;-79
2024/01/13 04:31:42;;;;;;;89.93;43.27;;;;;;;;;;4412091;32;319842;-80
2024/01/13 04:34:09;;;;;;;99.83;46.07;;;;;;;;;;4396975;32;319369;-79
2024/01/13 04:36:36;;;;;;;92.83;47.23;;;;;;;;;;4401423;32;318444;-79
2024/01/13 04:39:04;;;;;;;76.60;41.17;;;;;;;;;;4398635;32;319532;-79
2024/01/13 04:41:31;;;;;;;83.60;41.53;;;;;;;;;;4412659;32;318804;-79
2024/01/13 04:43:59;;;;;;;93.13;45.10;;;;;;;;;;4401287;32;349878;-79
2024/01/13 04:46:26;;;;;;;106.80;49.47;;;;;;;;;;4408141;32;319830;-79
2024/01/13 04:48:53;;;;;;;98.97;49.13;;;;;;;;;;4401884;32;320308;-78
2024/01/13 04:51:19;;;;;;;87.33;45.77;;;;;;;;;;4408169;32;319387;-77
2024/01/13 04:53:46;;;;;;;91.27;43.33;;;;;;;;;;4406749;32;318577;-77
2024/01/13 04:56:15;;;;;;;73.33;38.80;;;;;;;;;;4393597;32;319378;-77
2024/01/13 04:58:43;;;;;;;78.23;38.60;;;;;;;;;;4409974;32;319069;-79
2024/01/13 05:01:10;;;;;;;85.37;38.90;;;;;;;;;;4400747;32;318668;-79
2024/01/13 05:03:37;;;;;;;79.27;38.37;;;;;;;;;;4407448;32;319286;-79
2024/01/13 05:06:04;;;;;;;77.87;39.73;;;;;;;;;;4390213;32;319213;-78
2024/01/13 05:08:35;;;;;;;105.80;52.30;;;;;;;;;;4406836;32;319926;-80
2024/01/13 05:11:02;;;;;;;102.57;51.73;;;;;;;;;;4398660;32;320518;-79
2024/01/13 05:13:31;;;;;;;116.20;54.23;;;;;;;;;;4408790;32;321720;-78
2024/01/13 05:15:57;;;;;;;112.20;51.80;;;;;;;;;;4387803;32;320308;-79
2024/01/13 05:18:25;;;;;;;85.73;46.40;;;;;;;;;;4388871;32;320605;-78
2024/01/13 05:20:52;;;;;;;73.50;37.13;;;;;;;;;;4385026;32;324312;-79
2024/01/13 05:23:21;;;;;;;73.90;37.67;;;;;;;;;;4395019;32;318568;-78
2024/01/13 05:25:48;;;;;;;84.27;41.13;;;;;;;;;;4395296;32;319151;-78
2024/01/13 05:28:15;;;;;;;76.33;39.13;;;;;;;;;;4374751;32;319130;-78
2024/01/13 05:30:43;;;;;;;71.97;37.73;;;;;;;;;;4401882;32;319469;-78
2024/01/13 05:33:10;;;;;;;108.00;55.10;;;;;;;;;;4400220;32;319412;-79
2024/01/13 05:35:37;;;;;;;87.93;47.20;;;;;;;;;;4401385;32;319897;-79
2024/01/13 05:38:06;;;;;;;88.17;43.77;;;;;;;;;;4393524;32;319426;-79
2024/01/13 05:40:33;;;;;;;81.47;42.27;;;;;;;;;;4408956;32;318387;-78
2024/01/13 05:43:01;;;;;;;69.47;40.57;;;;;;;;;;4397401;32;318517;-79
2024/01/13 05:45:29;;;;;;;78.13;43.83;;;;;;;;;;4407140;32;318512;-78
2024/01/13 05:47:57;;;;;;;81.03;43.23;;;;;;;;;;4398537;32;400229;-79
2024/01/13 05:50:26;;;;;;;84.87;44.20;;;;;;;;;;4405900;32;319465;-79
2024/01/13 05:52:52;;;;;;;83.17;41.40;;;;;;;;;;4400180;32;319455;-78
2024/01/13 05:55:21;;;;;;;85.30;44.67;;;;;;;;;;4410976;32;318703;-79
2024/01/13 05:57:48;;;;;;;86.50;43.90;;;;;;;;;;4412158;32;318832;-79
2024/01/13 06:00:17;;;;;;;77.00;42.83;;;;;;;;;;4406703;32;319130;-79
2024/01/13 06:02:44;;;;;;;90.80;45.13;;;;;;;;;;4423039;32;318860;-79
2024/01/13 06:05:12;;;;;;;85.53;41.93;;;;;;;;;;4412431;32;319154;-79
2024/01/13 06:07:40;;;;;;;107.93;47.73;;;;;;;;;;4406198;32;319747;-79
2024/01/13 06:10:10;;;;;;;85.67;44.93;;;;;;;;;;4378993;32;320113;-80
2024/01/13 06:12:40;;;;;;;96.83;52.23;;;;;;;;;;4393800;32;318650;-79
2024/01/13 06:15:08;;;;;;;93.43;53.33;;;;;;;;;;4385199;32;319504;-79
2024/01/13 06:17:36;;;;;;;105.43;57.17;;;;;;;;;;4395343;32;318753;-79
2024/01/13 06:20:03;;;;;;;161.00;77.30;;;;;;;;;;4377852;32;320426;-79
2024/01/13 06:22:33;;;;;;;152.63;81.53;;;;;;;;;;4394779;32;320428;-79
2024/01/13 06:25:06;;;;;;;142.73;72.63;;;;;;;;;;4387740;32;320496;-79
2024/01/13 06:27:34;;;;;;;130.23;71.23;;;;;;;;;;4403801;32;320167;-79
2024/01/13 06:30:03;;;;;;;160.83;77.87;;;;;;;;;;4394310;32;320401;-79
2024/01/13 06:32:29;;;;;;;185.47;86.03;;;;;;;;;;4403275;32;355487;-78
2024/01/13 06:34:56;;;;;;;145.50;69.77;;;;;;;;;;4398695;32;319671;-78
2024/01/13 06:37:25;;;;;;;128.63;67.73;;;;;;;;;;4408272;32;320699;-79
2024/01/13 06:39:57;;;;;;;121.47;66.97;;;;;;;;;;4404843;32;320464;-79
2024/01/13 06:42:26;;;;;;;114.53;59.80;;;;;;;;;;4402098;32;319878;-79
2024/01/13 06:44:53;;;;;;;127.83;60.07;;;;;;;;;;4398574;32;320202;-79
2024/01/13 06:47:20;;;;;;;107.97;57.47;;;;;;;;;;4399522;32;319862;-79
2024/01/13 06:49:48;;;;;;;98.07;52.07;;;;;;;;;;4409423;32;319591;-79
2024/01/13 06:52:16;;;;;;;99.47;51.37;;;;;;;;;;4394603;32;319357;-78
2024/01/13 06:54:44;;;;;;;128.87;66.03;;;;;;;;;;4405679;32;319729;-80
2024/01/13 06:57:13;;;;;;;119.03;60.90;;;;;;;;;;4383487;32;319616;-79
2024/01/13 06:59:43;;;;;;;95.13;50.73;;;;;;;;;;4408486;32;319878;-79
2024/01/13 07:02:10;;;;;;;88.10;46.13;;;;;;;;;;4389134;32;319402;-78
2024/01/13 07:04:40;;;;;;;95.53;47.47;;;;;;;;;;4402575;32;319007;-78
2024/01/13 07:07:08;;;;;;;72.77;40.00;;;;;;;;;;4390674;32;318524;-77
2024/01/13 07:09:36;;;;;;;92.43;47.13;;;;;;;;;;4398743;32;319302;-78
2024/01/13 07:12:06;;;;;;;96.13;52.73;;;;;;;;;;4390117;32;319347;-75
2024/01/13 07:14:37;;;;;;;97.67;52.63;;;;;;;;;;4407783;32;319197;-78
2024/01/13 07:17:05;;;;;;;88.60;46.67;;;;;;;;;;4397652;32;319134;-78
2024/01/13 07:19:32;;;;;;;84.43;45.93;;;;;;;;;;4407104;32;318770;-78
2024/01/13 07:22:02;;;;;;;77.93;45.80;;;;;;;;;;4394350;32;318871;-78
2024/01/13 07:24:30;;;;;;;76.43;42.90;;;;;;;;;;4408215;32;319184;-78
2024/01/13 07:26:57;;;;;;;76.23;42.70;;;;;;;;;;4380067;32;318598;-79
2024/01/13 07:29:25;;;;;;;83.93;44.17;;;;;;;;;;4390362;32;319554;-78
2024/01/13 07:31:56;;;;;;;80.27;44.33;;;;;;;;;;4401025;32;318835;-78
2024/01/13 07:34:24;;;;;;;81.93;39.83;;;;;;;;;;4400988;32;319566;-79
2024/01/13 07:36:51;;;;;;;82.90;41.30;;;;;;;;;;4400657;32;319915;-79
2024/01/13 07:39:19;;;;;;;79.30;38.53;;;;;;;;;;4376645;32;419625;-80
2024/01/13 07:41:48;;;;;;;57.57;33.67;;;;;;;;;;4391760;32;318432;-79
2024/01/13 07:44:16;;;;;;;65.43;38.40;;;;;;;;;;4374521;32;319178;-79
2024/01/13 07:46:43;;;;;;;105.00;61.17;;;;;;;;;;4399985;32;319727;-79
2024/01/13 07:49:12;;;;;;;82.77;43.37;;;;;;;;;;4382468;32;320127;-79
2024/01/13 07:51:42;;;;;;;63.50;35.03;;;;;;;;;;4391791;32;319363;-78
2024/01/13 07:54:09;;;;;;;94.97;41.07;;;;;;;;;;4374100;32;359001;-79
2024/01/13 07:56:37;;;;;;;74.27;41.93;;;;;;;;;;4392833;32;319670;-79
2024/01/13 07:59:04;;;;;;;60.40;34.07;;;;;;;;;;4389099;32;318744;-79
2024/01/13 08:01:32;;;;;;;59.13;35.30;;;;;;;;;;4402680;32;319398;-79
2024/01/13 08:04:02;;;;;;;62.23;35.17;;;;;;;;;;4399921;32;318632;-79
2024/01/13 08:06:32;;;;;;;75.10;36.80;;;;;;;;;;4392103;32;318474;-80
2024/01/13 08:08:59;;;;;;;69.17;36.93;;;;;;;;;;4382131;32;319193;-80
2024/01/13 08:11:27;;;;;;;71.43;36.17;;;;;;;;;;4395067;32;319638;-79
2024/01/13 08:13:57;;;;;;;62.23;35.37;;;;;;;;;;4397400;32;319419;-79
2024/01/13 08:16:25;;;;;;;57.87;33.37;;;;;;;;;;4397891;32;318568;-80
2024/01/13 08:18:55;;;;;;;65.13;35.00;;;;;;;;;;4397543;32;318806;-79
2024/01/13 08:21:22;;;;;;;65.30;31.63;;;;;;;;;;4408545;32;318555;-80
2024/01/13 08:23:53;;;;;;;62.40;33.93;;;;;;;;;;4402641;32;318576;-80
2024/01/13 08:26:20;;;;;;;59.23;35.33;;;;;;;;;;4387779;32;418442;-79
2024/01/13 08:28:47;;;;;;;67.90;36.13;;;;;;;;;;4408177;32;319227;-81
2024/01/13 08:31:14;;;;;;;68.93;36.07;;;;;;;;;;4396368;32;318518;-78
2024/01/13 08:33:42;;;;;;;80.07;43.33;;;;;;;;;;4406448;32;318560;-79
2024/01/13 08:36:11;;;;;;;106.07;51.73;;;;;;;;;;4388300;32;318606;-80
2024/01/13 08:38:37;;;;;;;91.00;50.43;;;;;;;;;;4399300;32;319524;-79
2024/01/13 08:41:06;;;;;;;153.70;88.07;;;;;;;;;;4395938;32;319105;-78
2024/01/13 08:43:32;;;;;;;142.30;82.00;;;;;;;;;;4405769;32;319620;-78
2024/01/13 08:45:59;;;;;;;108.83;61.47;;;;;;;;;;4388632;32;320421;-79
2024/01/13 08:48:27;;;;;;;114.30;59.90;;;;;;;;;;4377226;32;320220;-79
2024/01/13 08:50:55;;;;;;;89.97;53.87;;;;;;;;;;4387796;32;320244;-80
2024/01/13 08:53:22;;;;;;;108.53;52.77;;;;;;;;;;4408321;32;318469;-80
2024/01/13 08:55:50;;;;;;;102.43;54.30;;;;;;;;;;4405949;32;320463;-79
2024/01/13 08:58:24;;;;;;;140.00;77.03;;;;;;;;;;4353843;32;419626;-79
2024/01/13 09:00:54;;;;;;;96.27;52.73;;;;;;;;;;4395414;32;320257;-79
2024/01/13 09:03:22;;;;;;;102.47;56.30;;;;;;;;;;4383482;32;319474;-79
2024/01/13 09:05:51;;;;;;;104.17;57.37;;;;;;;;;;4396722;32;319639;-79
2024/01/13 09:08:19;;;;;;;128.17;68.27;;;;;;;;;;4385992;32;419458;-79
2024/01/13 09:10:47;;;;;;;126.77;65.57;;;;;;;;;;4410760;32;319632;-79
2024/01/13 09:13:15;;;;;;;166.97;74.27;;;;;;;;;;4397050;32;320820;-79
2024/01/13 09:15:44;;;;;;;103.73;50.67;;;;;;;;;;4409862;32;320272;-80
2024/01/13 09:18:13;;;;;;;81.60;43.60;;;;;;;;;;4375459;32;319763;-80
2024/01/13 09:20:40;;;;;;;99.17;48.70;;;;;;;;;;4402891;32;319105;-80
2024/01/13 09:23:08;;;;;;;86.40;40.97;;;;;;;;;;4399321;32;318539;-82
2024/01/13 09:25:35;;;;;;;93.73;41.17;;;;;;;;;;4408643;32;319029;-81
2024/01/13 09:28:06;;;;;;;53.90;33.47;;;;;;;;;;4373670;32;319312;-81
2024/01/13 09:30:34;;;;;;;63.63;34.70;;;;;;;;;;4399791;32;319289;-79
2024/01/13 09:33:06;;;;;;;60.67;33.17;;;;;;;;;;4390513;32;319542;-80
2024/01/13 09:35:37;;;;;;;68.43;31.73;;;;;;;;;;4409932;32;318682;-79
2024/01/13 09:38:04;;;;;;;66.83;37.53;;;;;;;;;;4382533;32;318513;-79
2024/01/13 09:40:32;;;;;;;57.30;31.23;;;;;;;;;;4400422;32;319291;-80
2024/01/13 09:43:10;;;;;;;65.00;35.83;;;;;;;;;;4398871;32;319280;-80
2024/01/13 09:45:39;;;;;;;64.27;35.93;;;;;;;;;;4409720;32;319367;-79
2024/01/13 09:48:09;;;;;;;68.70;34.07;;;;;;;;;;4392837;32;319582;-80
2024/01/13 09:50:39;;;;;;;81.63;40.50;;;;;;;;;;4397369;32;319149;-81
2024/01/13 09:53:24;;;;;;;113.30;52.53;;;;;;;;;;4391645;32;318198;-81
2024/01/13 09:55:55;;;;;;;103.07;53.50;;;;;;;;;;4401892;32;321911;-80
2024/01/13 09:58:22;;;;;;;78.87;34.00;;;;;;;;;;4387472;32;418019;-80
2024/01/13 10:00:53;;;;;;;55.03;31.73;;;;;;;;;;4407366;32;318478;-81
2024/01/13 10:03:22;;;;;;;70.17;38.70;;;;;;;;;;4392316;32;417279;-80
2024/01/13 10:05:52;;;;;;;49.00;23.97;;;;;;;;;;4405184;32;318213;-80
2024/01/13 10:08:29;;;;;;;42.57;25.37;;;;;;;;;;4369015;32;416291;-82
2024/01/13 10:10:58;;;;;;;48.10;26.80;;;;;;;;;;4396723;32;318003;-83
2024/01/13 10:13:26;;;;;;;43.47;23.57;;;;;;;;;;4405308;32;317549;-82
2024/01/13 10:15:57;;;;;;;52.80;25.70;;;;;;;;;;4384727;32;318249;-82
2024/01/13 10:18:27;;;;;;;46.97;25.37;;;;;;;;;;4389820;32;318225;-83
2024/01/13 10:20:54;;;;;;;37.07;21.60;;;;;;;;;;4393557;32;317607;-82
2024/01/13 10:23:22;;;;;;;35.97;21.53;;;;;;;;;;4410592;32;317597;-82
2024/01/13 10:25:49;;;;;;;45.53;23.50;;;;;;;;;;4410377;32;317580;-80
2024/01/13 10:28:16;;;;;;;42.80;23.60;;;;;;;;;;4394869;32;317859;-80
2024/01/13 10:30:43;;;;;;;41.93;23.43;;;;;;;;;;4425537;32;318156;-78
2024/01/13 10:33:12;;;;;;;30.00;19.93;;;;;;;;;;4405628;32;317368;-79
2024/01/13 10:35:43;;;;;;;35.07;20.03;;;;;;;;;;4422156;32;316913;-78
2024/01/13 10:38:10;;;;;;;39.23;18.20;;;;;;;;;;4402506;32;345315;-78
2024/01/13 10:40:37;;;;;;;40.57;24.90;;;;;;;;;;4420954;32;318025;-77
2024/01/13 10:43:07;;;;;;;36.67;21.77;;;;;;;;;;4406431;32;317585;-78
2024/01/13 10:45:38;;;;;;;42.83;18.87;;;;;;;;;;4408012;32;325664;-79
2024/01/13 10:48:09;;;;;;;43.30;25.50;;;;;;;;;;4376660;32;317578;-79
2024/01/13 10:50:40;;;;;;;44.77;24.67;;;;;;;;;;4387103;32;318079;-79
2024/01/13 10:53:17;;;;;;;44.63;18.33;;;;;;;;;;4386519;32;317809;-78
2024/01/13 10:55:46;;;;;;;45.63;22.97;;;;;;;;;;4409931;32;318114;-81
2024/01/13 10:58:18;;;;;;;47.43;21.50;;;;;;;;;;4391057;32;318057;-78
2024/01/13 11:00:45;;;;;;;117.40;54.47;;;;;;;;;;4409810;32;317624;-79
2024/01/13 11:03:15;;;;;;;46.43;26.30;;;;;;;;;;4397811;32;318528;-78
2024/01/13 11:05:43;;;;;;;29.53;15.40;;;;;;;;;;4406319;32;317624;-79
2024/01/13 11:08:13;;;;;;;32.57;18.00;;;;;;;;;;4376554;32;317616;-79
2024/01/13 11:10:47;;;;;;;53.27;28.53;;;;;;;;;;4393361;32;318277;-81
2024/01/13 11:13:23;;;;;;;30.60;17.80;;;;;;;;;;4399146;32;317550;-80
2024/01/13 11:15:56;;;;;;;56.80;26.70;;;;;;;;;;4394289;32;317512;-80
2024/01/13 11:18:23;;;;;;;36.17;20.93;;;;;;;;;;4386443;32;417831;-80
2024/01/13 11:21:05;;;;;;;64.33;34.90;;;;;;;;;;4408075;32;317550;-80
2024/01/13 11:23:46;;;;;;;73.03;43.00;;;;;;;;;;4389090;32;417414;-80
2024/01/13 11:26:17;;;;;;;36.00;22.87;;;;;;;;;;4392024;32;318279;-80
2024/01/13 11:28:51;;;;;;;31.23;15.13;;;;;;;;;;4410548;32;317379;-81
2024/01/13 11:31:30;;;;;;;30.80;18.23;;;;;;;;;;4390372;32;417445;-80
2024/01/13 11:34:00;;;;;;;30.43;17.93;;;;;;;;;;4403062;32;318170;-80
2024/01/13 11:36:30;;;;;;;38.97;16.60;;;;;;;;;;4409067;32;318089;-79
2024/01/13 11:39:00;;;;;;;31.17;16.00;;;;;;;;;;4397636;32;317879;-80
2024/01/13 11:41:49;;;;;;;23.97;15.70;;;;;;;;;;4399005;32;318300;-77
2024/01/13 11:44:22;;;;;;;27.83;17.30;;;;;;;;;;4342232;32;318228;-77
2024/01/13 11:47:06;;;;;;;25.53;16.20;;;;;;;;;;4353428;32;318025;-78
2024/01/13 11:49:39;;;;;;;25.93;14.93;;;;;;;;;;4323717;32;418639;-82
2024/01/13 11:52:11;;;;;;;29.17;16.17;;;;;;;;;;4336938;32;317161;-82
2024/01/13 11:54:43;;;;;;;31.03;17.23;;;;;;;;;;4364416;32;317557;-81
2024/01/13 11:57:11;;;;;;;28.70;16.13;;;;;;;;;;4345778;32;317369;-80
2024/01/13 11:59:39;;;;;;;50.23;25.03;;;;;;;;;;4365329;32;317287;-79
2024/01/13 12:02:07;;;;;;;44.07;23.80;;;;;;;;;;4345586;32;317196;-80
2024/01/13 12:04:39;;;;;;;34.90;18.37;;;;;;;;;;4365589;32;317595;-79
2024/01/13 12:07:08;;;;;;;30.77;19.03;;;;;;;;;;4342572;32;333099;-79
2024/01/13 12:09:35;;;;;;;30.80;17.50;;;;;;;;;;4353572;32;318170;-80
2024/01/13 12:12:06;;;;;;;33.43;19.47;;;;;;;;;;4351464;32;317806;-80
2024/01/13 12:14:35;;;;;;;49.27;17.60;;;;;;;;;;4371658;32;317423;-80
2024/01/13 12:17:06;;;;;;;33.60;18.17;;;;;;;;;;4361709;32;316345;-80
2024/01/13 12:19:36;;;;;;;31.87;15.07;;;;;;;;;;4368348;32;317369;-79
2024/01/13 12:22:04;;;;;;;29.67;17.87;;;;;;;;;;4365054;32;318303;-79
2024/01/13 12:24:33;;;;;;;28.37;15.70;;;;;;;;;;4423043;32;318217;-79
2024/01/13 12:27:05;;;;;;;25.33;16.63;;;;;;;;;;4349956;32;317640;-79
2024/01/13 12:30:00;;;;;;;28.33;17.70;;;;;;;;;;4361310;32;317211;-80
2024/01/13 12:32:34;;;;;;;38.83;23.20;;;;;;;;;;4366803;32;418421;-79
2024/01/13 12:35:02;;;;;;;30.03;15.97;;;;;;;;;;4415307;32;318079;-80
2024/01/13 12:37:30;;;;;;;23.40;15.43;;;;;;;;;;4371224;32;353625;-80
2024/01/13 12:39:59;;;;;;;26.97;17.33;;;;;;;;;;4325505;32;317759;-81
2024/01/13 12:42:27;;;;;;;29.73;18.03;;;;;;;;;;4331262;32;317348;-80
2024/01/13 12:44:56;;;;;;;29.07;18.03;;;;;;;;;;4324752;32;318486;-80
2024/01/13 12:47:24;;;;;;;30.10;18.90;;;;;;;;;;4358816;32;317549;-81
2024/01/13 12:49:56;;;;;;;34.53;19.60;;;;;;;;;;4387917;32;317679;-81
2024/01/13 12:52:23;;;;;;;29.67;19.40;;;;;;;;;;4324327;32;417274;-80
2024/01/13 12:54:55;;;;;;;100.73;61.80;;;;;;;;;;4381640;32;317447;-80
2024/01/13 12:57:24;;;;;;;54.97;28.13;;;;;;;;;;4321384;32;418560;-80
2024/01/13 12:59:51;;;;;;;39.43;21.03;;;;;;;;;;4334441;32;318312;-80
2024/01/13 13:02:21;;;;;;;32.37;20.03;;;;;;;;;;4314715;32;417529;-79
2024/01/13 13:04:50;;;;;;;41.07;21.17;;;;;;;;;;4322564;32;317469;-80
2024/01/13 13:07:17;;;;;;;43.60;18.87;;;;;;;;;;4309690;32;318393;-80
2024/01/13 13:09:45;;;;;;;120.37;61.83;;;;;;;;;;4318994;32;332975;-80
2024/01/13 13:12:14;;;;;;;42.33;23.00;;;;;;;;;;4301759;32;318515;-81
2024/01/13 13:14:46;;;;;;;34.43;20.50;;;;;;;;;;4323331;32;317576;-80
2024/01/13 13:17:17;;;;;;;43.03;23.00;;;;;;;;;;4322718;32;318324;-80
2024/01/13 13:19:46;;;;;;;48.87;27.73;;;;;;;;;;4332280;32;318202;-80
2024/01/13 13:22:14;;;;;;;37.17;24.43;;;;;;;;;;4315279;32;319032;-80
2024/01/13 13:24:45;;;;;;;45.20;26.10;;;;;;;;;;4333981;32;317601;-80
2024/01/13 13:27:13;;;;;;;32.03;20.13;;;;;;;;;;4323539;32;318329;-80
2024/01/13 13:29:41;;;;;;;90.17;69.67;;;;;;;;;;4333944;32;318245;-80
2024/01/13 13:32:09;;;;;;;76.17;60.43;;;;;;;;;;4319123;32;317978;-80
2024/01/13 13:34:36;;;;;;;36.50;23.20;;;;;;;;;;4332195;32;316607;-81
2024/01/13 13:37:05;;;;;;;37.33;20.30;;;;;;;;;;4314334;32;317343;-80
2024/01/13 13:39:34;;;;;;;43.87;22.60;;;;;;;;;;4332715;33;318124;-80
2024/01/13 13:42:05;;;;;;;41.57;21.73;;;;;;;;;;4317985;32;347684;-81
2024/01/13 13:44:36;;;;;;;31.53;20.60;;;;;;;;;;4345800;32;317362;-81
2024/01/13 13:47:04;;;;;;;94.90;36.67;;;;;;;;;;4322741;32;317408;-80
2024/01/13 13:49:31;;;;;;;99.33;40.63;;;;;;;;;;4332784;32;318315;-80
2024/01/13 13:52:00;;;;;;;55.50;28.40;;;;;;;;;;4322759;32;318186;-81
2024/01/13 13:54:29;;;;;;;43.23;26.30;;;;;;;;;;4339650;32;335242;-80
2024/01/13 13:56:57;;;;;;;37.27;20.83;;;;;;;;;;4334495;32;319032;-80
2024/01/13 13:59:25;;;;;;;31.27;18.13;;;;;;;;;;4330539;32;317581;-81
2024/01/13 14:01:52;;;;;;;32.23;17.63;;;;;;;;;;4320147;32;317702;-80
2024/01/13 14:04:19;;;;;;;28.47;16.90;;;;;;;;;;4306010;32;417768;-81
2024/01/13 14:06:48;;;;;;;29.83;16.43;;;;;;;;;;4333991;32;327214;-81
2024/01/13 14:09:17;;;;;;;38.83;19.27;;;;;;;;;;4328488;32;317819;-80
2024/01/13 14:11:46;;;;;;;25.80;16.80;;;;;;;;;;4348530;32;317859;-80